Time;durP1;ratioP1;P1;durP2;ratioP2;P2;SDS_P1;SDS_P2;PMS_P1;PMS_P2;Temp;Humidity;BMP_temperature;BMP_pressure;BME280_temperature;BME280_humidity;BME280_pressure;Samples;Min_cycle;Max_cycle;Signal;HPM_P1;HPM_P2
2023/03/26 00:00:54;;;;;;;;;;;;;;;19.66;42.50;99982.74;101825;1314;62295;-82
2023/03/26 00:03:21;;;;;;;;;;;;;;;19.66;42.45;99981.83;101982;1311;63424;-83
2023/03/26 00:05:49;;;;;;;;;;;;;;;19.66;42.47;99977.22;101807;1309;62302;-83
2023/03/26 00:08:15;;;;;;;;;;;;;;;19.66;42.47;99969.04;101873;1314;63136;-83
2023/03/26 00:10:42;;;;;;;;;;;;;;;19.65;42.51;99967.83;101840;1308;62118;-84
2023/03/26 00:13:07;;;;;;;;;;;;;;;19.65;42.48;99965.49;101819;1314;63444;-84
2023/03/26 00:15:34;;;;;;;;;;;;;;;19.65;42.49;99962.30;101802;1311;62143;-82
2023/03/26 00:18:00;;;;;;;;;;;;;;;19.65;42.50;99959.97;101833;1309;62187;-83
2023/03/26 00:20:26;;;;;;;;;;;;;;;19.65;42.44;99960.54;101871;1309;63385;-82
2023/03/26 00:22:53;;;;;;;;;;;;;;;19.65;42.50;99959.08;101842;1308;62226;-83
2023/03/26 00:25:20;;;;;;;;;;;;;;;19.65;42.47;99962.50;101903;1313;62209;-81
2023/03/26 00:27:45;;;;;;;;;;;;;;;19.65;42.52;99965.88;101813;1314;62246;-83
2023/03/26 00:30:11;;;;;;;;;;;;;;;19.65;42.47;99963.39;101878;1314;62248;-83
2023/03/26 00:32:37;;;;;;;;;;;;;;;19.64;42.48;99959.66;101863;1313;62155;-82
2023/03/26 00:35:03;;;;;;;;;;;;;;;19.64;42.53;99959.30;101904;1308;62257;-83
2023/03/26 00:37:29;;;;;;;;;;;;;;;19.64;42.50;99956.67;101796;1313;76245;-83
2023/03/26 00:40:01;;;;;;;;;;;;;;;19.64;42.43;99958.45;101798;1311;62293;-83
2023/03/26 00:42:27;;;;;;;;;;;;;;;19.64;42.46;99962.56;101869;1309;62213;-83
2023/03/26 00:44:56;;;;;;;;;;;;;;;19.64;42.48;99959.52;101790;1311;62244;-82
2023/03/26 00:47:28;;;;;;;;;;;;;;;19.65;42.49;99962.52;101886;1310;75391;-84
2023/03/26 00:49:54;;;;;;;;;;;;;;;19.64;42.48;99960.75;101926;1308;62240;-83
2023/03/26 00:52:20;;;;;;;;;;;;;;;19.64;42.48;99957.05;101769;1308;62223;-83
2023/03/26 00:54:46;;;;;;;;;;;;;;;19.64;42.47;99961.31;101792;1314;62203;-82
2023/03/26 00:57:13;;;;;;;;;;;;;;;19.63;42.53;99961.37;101762;1309;63005;-82
2023/03/26 00:59:39;;;;;;;;;;;;;;;19.64;42.51;99965.98;101745;1311;62885;-83
2023/03/26 01:02:05;;;;;;;;;;;;;;;19.64;42.44;99971.51;101942;1309;62241;-83
2023/03/26 01:04:33;;;;;;;;;;;;;;;19.64;42.45;99963.85;101882;1314;62630;-83
2023/03/26 01:07:08;;;;;;;;;;;;;;;19.63;42.47;99949.81;101812;1308;63203;-82
2023/03/26 01:09:34;;;;;;;;;;;;;;;19.64;42.44;99945.64;101819;1310;62178;-82
2023/03/26 01:12:01;;;;;;;;;;;;;;;19.64;42.42;99950.46;102019;1311;62270;-83
2023/03/26 01:14:27;;;;;;;;;;;;;;;19.63;42.51;99956.05;101772;1314;62280;-83
2023/03/26 01:16:54;;;;;;;;;;;;;;;19.63;42.45;99954.27;101792;1314;76223;-83
2023/03/26 01:19:23;;;;;;;;;;;;;;;19.63;42.43;99949.79;101827;1314;62996;-83
2023/03/26 01:21:49;;;;;;;;;;;;;;;19.63;42.53;99948.73;101763;1311;62152;-84
2023/03/26 01:24:14;;;;;;;;;;;;;;;19.63;42.55;99943.89;101799;1311;62279;-83
2023/03/26 01:26:39;;;;;;;;;;;;;;;19.63;42.52;99939.98;101766;1314;62258;-83
2023/03/26 01:29:08;;;;;;;;;;;;;;;19.63;42.44;99940.15;101810;1314;62140;-83
2023/03/26 01:31:47;;;;;;;;;;;;;;;19.63;42.50;99939.65;101813;1310;62239;-82
2023/03/26 01:34:32;;;;;;;;;;;;;;;19.63;42.48;99930.20;101797;1313;72654;-82
2023/03/26 01:36:58;;;;;;;;;;;;;;;19.63;42.48;99933.94;101739;1311;76403;-83
2023/03/26 01:39:41;;;;;;;;;;;;;;;19.63;42.47;99940.70;101848;1314;62790;-81
2023/03/26 01:42:09;;;;;;;;;;;;;;;19.63;42.42;99947.13;102027;1310;62138;-85
2023/03/26 01:44:37;;;;;;;;;;;;;;;19.63;42.44;99955.88;101893;1313;73398;-82
2023/03/26 01:47:03;;;;;;;;;;;;;;;19.62;42.40;99960.00;101880;1310;76479;-82
2023/03/26 01:49:30;;;;;;;;;;;;;;;19.63;42.45;99959.29;101722;1311;62277;-83
2023/03/26 01:51:56;;;;;;;;;;;;;;;19.63;42.45;99962.50;101788;1311;62141;-83
2023/03/26 01:54:23;;;;;;;;;;;;;;;19.63;42.42;99965.69;101762;1314;62982;-83
2023/03/26 01:56:52;;;;;;;;;;;;;;;19.63;42.48;99966.20;101743;1314;62220;-83
2023/03/26 01:59:37;;;;;;;;;;;;;;;19.63;42.41;99969.46;101736;1311;62126;-82
2023/03/26 02:02:10;;;;;;;;;;;;;;;19.62;42.44;99966.96;101842;1312;62229;-83
2023/03/26 02:04:51;;;;;;;;;;;;;;;19.62;42.44;99968.95;101766;1313;73532;-83
2023/03/26 02:07:20;;;;;;;;;;;;;;;19.62;42.49;99968.77;101819;1314;75294;-83
2023/03/26 02:09:54;;;;;;;;;;;;;;;19.62;42.44;99967.36;101772;1312;62255;-83
2023/03/26 02:12:19;;;;;;;;;;;;;;;19.62;42.45;99968.45;101776;1313;62151;-83
2023/03/26 02:14:47;;;;;;;;;;;;;;;19.61;42.38;99964.90;101873;1310;62629;-82
2023/03/26 02:17:14;;;;;;;;;;;;;;;19.62;42.37;99963.30;101798;1313;75181;-84
2023/03/26 02:19:42;;;;;;;;;;;;;;;19.62;42.48;99961.86;101800;1311;62156;-82
2023/03/26 02:22:10;;;;;;;;;;;;;;;19.61;42.49;99959.92;101830;1310;62223;-83
2023/03/26 02:24:38;;;;;;;;;;;;;;;19.61;42.42;99966.36;101786;1313;72457;-82
2023/03/26 02:27:06;;;;;;;;;;;;;;;19.61;42.40;99966.70;101795;1314;74258;-82
2023/03/26 02:29:38;;;;;;;;;;;;;;;19.61;42.43;99973.69;101882;1314;62265;-83
2023/03/26 02:32:05;;;;;;;;;;;;;;;19.61;42.34;99979.39;101718;1312;62118;-83
2023/03/26 02:34:30;;;;;;;;;;;;;;;19.61;42.40;99984.91;101786;1313;62254;-82
2023/03/26 02:36:58;;;;;;;;;;;;;;;19.60;42.40;99988.16;101789;1314;62255;-82
2023/03/26 02:39:23;;;;;;;;;;;;;;;19.61;42.43;99987.45;101783;1311;62300;-82
2023/03/26 02:41:49;;;;;;;;;;;;;;;19.60;42.41;99985.15;101729;1311;62242;-83
2023/03/26 02:44:16;;;;;;;;;;;;;;;19.60;42.44;99986.90;101628;1314;62177;-82
2023/03/26 02:46:42;;;;;;;;;;;;;;;19.60;42.39;99984.77;101798;1313;62244;-83
2023/03/26 02:49:08;;;;;;;;;;;;;;;19.60;42.34;99983.55;101730;1312;62226;-83
2023/03/26 02:51:34;;;;;;;;;;;;;;;19.60;42.43;99983.88;101843;1314;62197;-83
2023/03/26 02:54:00;;;;;;;;;;;;;;;19.60;42.37;99983.20;101838;1311;62216;-83
2023/03/26 02:56:27;;;;;;;;;;;;;;;19.60;42.36;99988.17;101823;1312;62933;-83
2023/03/26 02:58:52;;;;;;;;;;;;;;;19.60;42.35;99987.99;101867;1314;62258;-82
2023/03/26 03:01:21;;;;;;;;;;;;;;;19.60;42.37;99983.17;101768;1309;62252;-82
2023/03/26 03:03:47;;;;;;;;;;;;;;;19.60;42.35;99980.86;101639;1317;62930;-83
2023/03/26 03:06:15;;;;;;;;;;;;;;;19.60;42.40;99982.84;101798;1311;62252;-83
2023/03/26 03:08:42;;;;;;;;;;;;;;;19.60;42.39;99984.81;101761;1311;75278;-83
2023/03/26 03:11:08;;;;;;;;;;;;;;;19.60;42.37;99984.44;101829;1314;62193;-82
2023/03/26 03:13:34;;;;;;;;;;;;;;;19.60;42.30;99983.20;101837;1313;62223;-83
2023/03/26 03:15:59;;;;;;;;;;;;;;;19.60;42.45;99981.24;101752;1313;62251;-83
2023/03/26 03:18:26;;;;;;;;;;;;;;;19.59;42.46;99986.63;101809;1313;62248;-83
2023/03/26 03:20:52;;;;;;;;;;;;;;;19.59;42.43;99987.88;101850;1310;63109;-82
2023/03/26 03:23:18;;;;;;;;;;;;;;;19.59;42.39;99991.81;101845;1313;62617;-83
2023/03/26 03:25:44;;;;;;;;;;;;;;;19.59;42.47;99993.95;101762;1312;62284;-82
2023/03/26 03:28:10;;;;;;;;;;;;;;;19.59;42.40;99990.06;101906;1314;62267;-82
2023/03/26 03:30:36;;;;;;;;;;;;;;;19.59;42.41;99993.61;101810;1310;75325;-82
2023/03/26 03:33:02;;;;;;;;;;;;;;;19.59;42.33;99995.73;101882;1312;62211;-83
2023/03/26 03:35:32;;;;;;;;;;;;;;;19.59;42.35;99993.83;101788;1313;62242;-83
2023/03/26 03:37:58;;;;;;;;;;;;;;;19.59;42.33;99994.35;101780;1314;72277;-83
2023/03/26 03:40:24;;;;;;;;;;;;;;;19.59;42.35;100000.05;101802;1311;62265;-83
2023/03/26 03:42:50;;;;;;;;;;;;;;;19.59;42.41;99996.48;101722;1314;62247;-83
2023/03/26 03:45:15;;;;;;;;;;;;;;;19.59;42.45;100000.27;101797;1314;62302;-83
2023/03/26 03:47:41;;;;;;;;;;;;;;;19.59;42.37;99998.81;101906;1310;62273;-83
2023/03/26 03:50:07;;;;;;;;;;;;;;;19.58;42.42;100004.04;101778;1311;72683;-82
2023/03/26 03:52:32;;;;;;;;;;;;;;;19.58;42.39;100004.41;101816;1314;62254;-82
2023/03/26 03:54:59;;;;;;;;;;;;;;;19.58;42.40;100003.70;101704;1314;62305;-82
2023/03/26 03:57:25;;;;;;;;;;;;;;;19.58;42.25;100010.83;101735;1311;62153;-83
2023/03/26 03:59:50;;;;;;;;;;;;;;;19.58;42.39;100008.34;101838;1312;62285;-82
2023/03/26 04:02:24;;;;;;;;;;;;;;;19.58;42.38;100010.46;102385;1313;62120;-83
2023/03/26 04:04:56;;;;;;;;;;;;;;;19.58;42.32;100009.95;101827;1311;62211;-82
2023/03/26 04:07:25;;;;;;;;;;;;;;;19.57;42.41;100004.27;101745;1311;62257;-84
2023/03/26 04:09:50;;;;;;;;;;;;;;;19.58;42.31;100005.15;101798;1309;72532;-82
2023/03/26 04:12:17;;;;;;;;;;;;;;;19.58;42.34;100006.02;101734;1313;62171;-83
2023/03/26 04:14:43;;;;;;;;;;;;;;;19.58;42.39;100010.85;101732;1311;62992;-83
2023/03/26 04:17:09;;;;;;;;;;;;;;;19.58;42.39;100013.83;101737;1317;62321;-83
2023/03/26 04:19:34;;;;;;;;;;;;;;;19.58;42.40;100011.58;101648;1312;62223;-82
2023/03/26 04:22:01;;;;;;;;;;;;;;;19.57;42.36;100012.84;101682;1314;62864;-83
2023/03/26 04:24:27;;;;;;;;;;;;;;;19.58;42.33;100012.11;101725;1311;62175;-82
2023/03/26 04:26:57;;;;;;;;;;;;;;;19.57;42.35;100009.09;101564;1317;62251;-82
2023/03/26 04:29:26;;;;;;;;;;;;;;;19.58;42.31;100012.84;101603;1312;62221;-83
2023/03/26 04:31:57;;;;;;;;;;;;;;;19.57;42.38;100017.66;101568;1317;76384;-83
2023/03/26 04:34:23;;;;;;;;;;;;;;;19.57;42.32;100018.22;101618;1311;62257;-83
2023/03/26 04:36:53;;;;;;;;;;;;;;;19.57;42.32;100019.27;101579;1312;62193;-83
2023/03/26 04:39:20;;;;;;;;;;;;;;;19.58;42.34;100018.01;101590;1311;73384;-83
2023/03/26 04:41:47;;;;;;;;;;;;;;;19.57;42.40;100018.20;101629;1317;76358;-82
2023/03/26 04:44:15;;;;;;;;;;;;;;;19.57;42.41;100018.73;101528;1316;62271;-82
2023/03/26 04:46:42;;;;;;;;;;;;;;;19.57;42.35;100016.79;101627;1314;62296;-83
2023/03/26 04:49:08;;;;;;;;;;;;;;;19.57;42.35;100021.42;101607;1311;73333;-83
2023/03/26 04:51:37;;;;;;;;;;;;;;;19.57;42.43;100021.25;101826;1314;62242;-83
2023/03/26 04:54:07;;;;;;;;;;;;;;;19.57;42.34;100024.47;101686;1314;62229;-83
2023/03/26 04:56:50;;;;;;;;;;;;;;;19.57;42.41;100024.11;101731;1313;62194;-83
2023/03/26 04:59:17;;;;;;;;;;;;;;;19.57;42.43;100031.23;101780;1310;73538;-83
2023/03/26 05:01:44;;;;;;;;;;;;;;;19.57;42.40;100031.95;101710;1309;76192;-82
2023/03/26 05:04:13;;;;;;;;;;;;;;;19.57;42.35;100034.45;101721;1311;62220;-83
2023/03/26 05:06:41;;;;;;;;;;;;;;;19.58;42.43;100033.18;101680;1315;62102;-83
2023/03/26 05:09:09;;;;;;;;;;;;;;;19.57;42.37;100034.28;101791;1312;72744;-82
2023/03/26 05:11:35;;;;;;;;;;;;;;;19.57;42.33;100037.30;101653;1314;75441;-84
2023/03/26 05:14:01;;;;;;;;;;;;;;;19.57;42.39;100034.80;101761;1311;62242;-84
2023/03/26 05:16:26;;;;;;;;;;;;;;;19.57;42.31;100037.13;101766;1314;63058;-82
2023/03/26 05:18:52;;;;;;;;;;;;;;;19.58;42.37;100038.52;101807;1314;62159;-83
2023/03/26 05:21:18;;;;;;;;;;;;;;;19.57;42.37;100041.22;101700;1314;62182;-83
2023/03/26 05:23:44;;;;;;;;;;;;;;;19.58;42.40;100048.52;101849;1314;62184;-83
2023/03/26 05:26:10;;;;;;;;;;;;;;;19.58;42.31;100050.30;101768;1314;62251;-83
2023/03/26 05:28:35;;;;;;;;;;;;;;;19.58;42.35;100054.93;101836;1311;62232;-82
2023/03/26 05:31:01;;;;;;;;;;;;;;;19.58;42.41;100054.02;101743;1311;62439;-82
2023/03/26 05:33:27;;;;;;;;;;;;;;;19.58;42.38;100057.45;101332;1318;62408;-82
2023/03/26 05:36:03;;;;;;;;;;;;;;;19.58;42.45;100066.14;101702;1312;62613;-83
2023/03/26 05:38:29;;;;;;;;;;;;;;;19.58;42.39;100069.20;101215;1318;62137;-83
2023/03/26 05:41:01;;;;;;;;;;;;;;;19.58;42.32;100078.31;101300;1314;62137;-82
2023/03/26 05:43:27;;;;;;;;;;;;;;;19.58;42.40;100077.05;101235;1316;76628;-82
2023/03/26 05:45:52;;;;;;;;;;;;;;;19.58;42.38;100085.45;101240;1314;62216;-83
2023/03/26 05:48:19;;;;;;;;;;;;;;;19.58;42.43;100087.41;101207;1314;62245;-82
2023/03/26 05:50:46;;;;;;;;;;;;;;;19.58;42.35;100089.37;101273;1320;62524;-83
2023/03/26 05:53:12;;;;;;;;;;;;;;;19.58;42.45;100093.29;101303;1317;62204;-82
2023/03/26 05:55:39;;;;;;;;;;;;;;;19.58;42.40;100094.67;101258;1318;62220;-82
2023/03/26 05:58:05;;;;;;;;;;;;;;;19.58;42.43;100092.05;101200;1314;63280;-83
2023/03/26 06:00:30;;;;;;;;;;;;;;;19.58;42.37;100099.16;101193;1314;62300;-83
2023/03/26 06:02:56;;;;;;;;;;;;;;;19.58;42.44;100101.31;101367;1317;62184;-83
2023/03/26 06:05:21;;;;;;;;;;;;;;;19.59;42.37;100109.10;101351;1313;62331;-82
2023/03/26 06:07:48;;;;;;;;;;;;;;;19.58;42.38;100121.11;101345;1315;62128;-82
2023/03/26 06:10:13;;;;;;;;;;;;;;;19.59;42.42;100123.59;101513;1314;62114;-83
2023/03/26 06:12:39;;;;;;;;;;;;;;;19.59;42.50;100127.70;101787;1314;62254;-83
2023/03/26 06:15:05;;;;;;;;;;;;;;;19.59;42.40;100132.32;101767;1325;62235;-82
2023/03/26 06:17:31;;;;;;;;;;;;;;;19.59;42.48;100141.26;101813;1314;63052;-83
2023/03/26 06:19:57;;;;;;;;;;;;;;;19.58;42.44;100145.58;101819;1310;62322;-83
2023/03/26 06:22:22;;;;;;;;;;;;;;;19.58;42.39;100153.61;102012;1314;62226;-82
2023/03/26 06:24:49;;;;;;;;;;;;;;;19.58;42.43;100155.91;101966;1314;62327;-83
2023/03/26 06:27:14;;;;;;;;;;;;;;;19.58;42.51;100157.52;101734;1314;76396;-84
2023/03/26 06:29:40;;;;;;;;;;;;;;;19.59;42.43;100164.11;101708;1314;62369;-83
2023/03/26 06:32:05;;;;;;;;;;;;;;;19.59;42.43;100165.91;101695;1314;62263;-83
2023/03/26 06:34:31;;;;;;;;;;;;;;;19.59;42.49;100166.97;101772;1314;62302;-82
2023/03/26 06:37:22;;;;;;;;;;;;;;;19.59;42.46;100170.35;101870;1313;62216;-84
2023/03/26 06:39:48;;;;;;;;;;;;;;;19.59;42.39;100168.74;101210;1320;76411;-81
2023/03/26 06:42:14;;;;;;;;;;;;;;;19.59;42.47;100169.11;101085;1320;62194;-82
2023/03/26 06:44:39;;;;;;;;;;;;;;;19.59;42.48;100172.69;101239;1320;62342;-83
2023/03/26 06:47:05;;;;;;;;;;;;;;;19.59;42.54;100176.08;101154;1317;62314;-83
2023/03/26 06:49:30;;;;;;;;;;;;;;;19.59;42.53;100183.54;101247;1320;62172;-83
2023/03/26 06:51:56;;;;;;;;;;;;;;;19.59;42.48;100189.80;101117;1318;62449;-84
2023/03/26 06:54:22;;;;;;;;;;;;;;;19.59;42.44;100192.30;101199;1317;62232;-83
2023/03/26 06:56:48;;;;;;;;;;;;;;;19.58;42.52;100195.54;101124;1320;62954;-84
2023/03/26 06:59:21;;;;;;;;;;;;;;;19.59;42.46;100199.08;101206;1320;72193;-82
2023/03/26 07:01:47;;;;;;;;;;;;;;;19.58;42.42;100193.08;101231;1320;62277;-82
2023/03/26 07:04:13;;;;;;;;;;;;;;;19.59;42.55;100188.55;100705;1320;707326;-83
2023/03/26 07:06:39;;;;;;;;;;;;;;;19.58;42.50;100183.59;101190;1317;62927;-83
2023/03/26 07:09:07;;;;;;;;;;;;;;;19.59;42.52;100189.63;101066;1324;63617;-82
2023/03/26 07:11:32;;;;;;;;;;;;;;;19.58;42.51;100194.64;101235;1316;62255;-82
2023/03/26 07:13:58;;;;;;;;;;;;;;;19.59;42.54;100192.13;101098;1320;62386;-83
2023/03/26 07:16:24;;;;;;;;;;;;;;;19.59;42.49;100189.42;101269;1317;62309;-81
2023/03/26 07:18:51;;;;;;;;;;;;;;;19.60;42.47;100186.70;101694;1316;62249;-82
2023/03/26 07:21:18;;;;;;;;;;;;;;;19.59;42.54;100174.80;101754;1311;62233;-83
2023/03/26 07:23:47;;;;;;;;;;;;;;;19.59;42.49;100156.07;101807;1311;62186;-83
2023/03/26 07:26:30;;;;;;;;;;;;;;;19.59;42.52;100134.10;101712;1316;62331;-83
2023/03/26 07:28:59;;;;;;;;;;;;;;;19.59;42.48;100128.95;101696;1313;73460;-82
2023/03/26 07:31:25;;;;;;;;;;;;;;;19.59;42.49;100125.55;101739;1316;76384;-83
2023/03/26 07:33:52;;;;;;;;;;;;;;;19.59;42.43;100126.05;101758;1311;62117;-83
2023/03/26 07:36:28;;;;;;;;;;;;;;;19.59;42.48;100130.84;101725;1312;62245;-83
2023/03/26 07:39:30;;;;;;;;;;;;;;;19.60;42.49;100134.02;101777;1316;73661;-83
2023/03/26 07:42:02;;;;;;;;;;;;;;;19.61;42.46;100123.26;101313;1318;75341;-83
2023/03/26 07:44:30;;;;;;;;;;;;;;;19.62;42.53;100126.41;101229;1320;62759;-83
2023/03/26 07:46:58;;;;;;;;;;;;;;;19.63;42.43;100140.80;101199;1320;62159;-83
2023/03/26 07:49:24;;;;;;;;;;;;;;;19.64;42.58;100148.73;101227;1318;73882;-83
2023/03/26 07:51:49;;;;;;;;;;;;;;;19.64;42.53;100152.98;101209;1315;62414;-82
2023/03/26 07:54:15;;;;;;;;;;;;;;;19.65;42.58;100152.39;101231;1320;62450;-83
2023/03/26 07:57:00;;;;;;;;;;;;;;;19.66;42.60;100159.86;101253;1314;62261;-82
2023/03/26 07:59:32;;;;;;;;;;;;;;;19.66;42.63;100170.52;101239;1319;73478;-81
2023/03/26 08:02:27;;;;;;;;;;;;;;;19.67;42.63;100172.82;101307;1318;75148;-82
2023/03/26 08:04:59;;;;;;;;;;;;;;;19.67;42.60;100177.64;100733;1323;62667;-82
2023/03/26 08:07:27;;;;;;;;;;;;;;;19.67;42.66;100179.58;100819;1324;62093;-82
2023/03/26 08:10:11;;;;;;;;;;;;;;;19.66;42.62;100178.73;100758;1323;73926;-83
2023/03/26 08:12:44;;;;;;;;;;;;;;;19.66;42.62;100182.64;100752;1325;76382;-82
2023/03/26 08:15:24;;;;;;;;;;;;;;;19.67;42.65;100181.21;100784;1322;62216;-82
2023/03/26 08:17:52;;;;;;;;;;;;;;;19.67;42.68;100181.90;100964;1325;63017;-83
2023/03/26 08:20:29;;;;;;;;;;;;;;;19.67;42.68;100183.53;100821;1319;73342;-82
2023/03/26 08:23:00;;;;;;;;;;;;;;;19.67;42.71;100196.70;100904;1325;75324;-82
2023/03/26 08:25:34;;;;;;;;;;;;;;;19.68;42.70;100207.55;100864;1324;62472;-82
2023/03/26 08:28:05;;;;;;;;;;;;;;;19.68;42.71;100208.79;100885;1319;62278;-83
2023/03/26 08:30:31;;;;;;;;;;;;;;;19.68;42.66;100209.85;100884;1319;72476;-83
2023/03/26 08:32:57;;;;;;;;;;;;;;;19.68;42.80;100215.92;100889;1321;62331;-82
2023/03/26 08:35:24;;;;;;;;;;;;;;;19.68;42.78;100211.94;100897;1320;62081;-82
2023/03/26 08:37:50;;;;;;;;;;;;;;;19.69;42.76;100221.00;100912;1325;62178;-82
2023/03/26 08:40:18;;;;;;;;;;;;;;;19.69;42.73;100217.79;100936;1326;62362;-83
2023/03/26 08:43:09;;;;;;;;;;;;;;;19.69;42.79;100222.06;101781;1317;76460;-83
2023/03/26 08:45:54;;;;;;;;;;;;;;;19.69;42.82;100224.92;101830;1312;62344;-83
2023/03/26 08:48:31;;;;;;;;;;;;;;;19.70;42.83;100227.55;101781;1314;62141;-83
2023/03/26 08:50:57;;;;;;;;;;;;;;;19.70;42.73;100224.11;101699;1316;72736;-82
2023/03/26 08:53:23;;;;;;;;;;;;;;;19.70;42.82;100224.11;101778;1309;62147;-84
2023/03/26 08:55:55;;;;;;;;;;;;;;;19.71;42.85;100223.73;101809;1314;62226;-83
2023/03/26 08:58:35;;;;;;;;;;;;;;;19.71;42.83;100231.04;101761;1313;62232;-83
2023/03/26 09:01:20;;;;;;;;;;;;;;;19.71;42.81;100231.56;101815;1311;73392;-83
2023/03/26 09:04:04;;;;;;;;;;;;;;;19.71;42.85;100229.23;101791;1313;75408;-83
2023/03/26 09:06:33;;;;;;;;;;;;;;;19.72;42.83;100225.64;101821;1311;62229;-83
2023/03/26 09:09:17;;;;;;;;;;;;;;;19.71;42.81;100225.50;101773;1314;62207;-83
2023/03/26 09:11:55;;;;;;;;;;;;;;;19.72;42.88;100228.27;101807;1310;72503;-83
2023/03/26 09:14:30;;;;;;;;;;;;;;;19.72;42.88;100226.89;101720;1310;75389;-83
2023/03/26 09:17:26;;;;;;;;;;;;;;;19.71;42.96;100220.83;101758;1310;62120;-83
2023/03/26 09:20:02;;;;;;;;;;;;;;;19.71;42.88;100225.81;101276;1318;62197;-83
2023/03/26 09:22:45;;;;;;;;;;;;;;;19.72;42.81;100222.20;101170;1317;73853;-83
2023/03/26 09:25:21;;;;;;;;;;;;;;;19.72;42.86;100218.12;101175;1317;76320;-82
2023/03/26 09:28:07;;;;;;;;;;;;;;;19.72;42.91;100219.21;101206;1320;62754;-82
2023/03/26 09:30:38;;;;;;;;;;;;;;;19.72;42.92;100219.20;100772;1323;63517;-82
2023/03/26 09:33:21;;;;;;;;;;;;;;;19.72;42.91;100218.48;100674;1323;72623;-83
2023/03/26 09:35:52;;;;;;;;;;;;;;;19.72;42.85;100210.98;100749;1327;76254;-82
2023/03/26 09:38:31;;;;;;;;;;;;;;;19.72;42.91;100206.69;100807;1323;62371;-83
2023/03/26 09:41:05;;;;;;;;;;;;;;;19.72;42.92;100209.04;100770;1327;62187;-83
2023/03/26 09:43:49;;;;;;;;;;;;;;;19.71;42.92;100211.90;100838;1322;73653;-82
2023/03/26 09:46:34;;;;;;;;;;;;;;;19.71;42.89;100208.16;100740;1323;76542;-83
2023/03/26 09:49:12;;;;;;;;;;;;;;;19.72;42.90;100202.62;100387;1329;62196;-83
2023/03/26 09:51:40;;;;;;;;;;;;;;;19.72;42.88;100202.25;100396;1329;62254;-83
2023/03/26 09:54:35;;;;;;;;;;;;;;;19.71;42.92;100195.30;100315;1334;72622;-83
2023/03/26 09:57:17;;;;;;;;;;;;;;;19.71;42.89;100195.50;100403;1331;76521;-81
2023/03/26 10:00:02;;;;;;;;;;;;;;;19.72;42.85;100196.19;100621;1326;62220;-83
2023/03/26 10:02:36;;;;;;;;;;;;;;;19.72;42.95;100199.04;100533;1326;62295;-82
2023/03/26 10:05:03;;;;;;;;;;;;;;;19.72;42.91;100195.64;100554;1326;71687;-82
2023/03/26 10:07:47;;;;;;;;;;;;;;;19.72;42.96;100196.16;100758;1321;75302;-82
2023/03/26 10:10:25;;;;;;;;;;;;;;;19.72;42.93;100194.05;100940;1320;62349;-83
2023/03/26 10:12:51;;;;;;;;;;;;;;;19.72;42.97;100183.51;100914;1320;62153;-83
2023/03/26 10:15:23;;;;;;;;;;;;;;;19.72;42.98;100175.48;101032;1321;62346;-82
2023/03/26 10:17:59;;;;;;;;;;;;;;;19.72;43.01;100172.42;100900;1319;76504;-83
2023/03/26 10:20:32;;;;;;;;;;;;;;;19.72;43.00;100164.38;100863;1325;62273;-83
2023/03/26 10:23:07;;;;;;;;;;;;;;;19.71;42.93;100157.80;100966;1320;62101;-83
2023/03/26 10:25:35;;;;;;;;;;;;;;;19.71;42.90;100156.79;100917;1319;72638;-83
2023/03/26 10:28:21;;;;;;;;;;;;;;;19.71;42.93;100156.92;101494;1316;75129;-84
2023/03/26 10:30:55;;;;;;;;;;;;;;;19.71;42.93;100153.01;101376;1312;62869;-82
2023/03/26 10:33:21;;;;;;;;;;;;;;;19.71;42.95;100149.80;101710;1314;62083;-84
2023/03/26 10:35:52;;;;;;;;;;;;;;;19.71;42.93;100150.54;101813;1314;63295;-83
2023/03/26 10:38:19;;;;;;;;;;;;;;;19.71;42.92;100152.11;101831;1313;76922;-83
2023/03/26 10:41:05;;;;;;;;;;;;;;;19.71;42.95;100150.55;101780;1313;63235;-83
2023/03/26 10:43:40;;;;;;;;;;;;;;;19.70;42.85;100140.92;101818;1314;62217;-83
2023/03/26 10:46:08;;;;;;;;;;;;;;;19.70;42.98;100143.61;101767;1310;73610;-84
2023/03/26 10:48:41;;;;;;;;;;;;;;;19.70;42.89;100137.89;101734;1311;76458;-83
2023/03/26 10:51:15;;;;;;;;;;;;;;;19.70;42.89;100134.34;101746;1312;62103;-83
2023/03/26 10:53:50;;;;;;;;;;;;;;;19.70;42.93;100127.71;101841;1314;62248;-82
2023/03/26 10:56:32;;;;;;;;;;;;;;;19.70;42.92;100123.27;101757;1311;72703;-83
2023/03/26 10:58:57;;;;;;;;;;;;;;;19.70;42.87;100125.76;101918;1308;76336;-83
2023/03/26 11:01:37;;;;;;;;;;;;;;;19.70;43.00;100129.18;102201;1314;63874;-83
2023/03/26 11:04:35;;;;;;;;;;;;;;;19.70;43.00;100128.27;102174;1310;62117;-83
2023/03/26 11:07:06;;;;;;;;;;;;;;;19.70;42.97;100124.70;101472;1311;72955;-83
2023/03/26 11:09:51;;;;;;;;;;;;;;;19.70;42.97;100122.19;101970;1314;76509;-83
2023/03/26 11:12:22;;;;;;;;;;;;;;;19.70;43.00;100113.08;101879;1311;62153;-83
2023/03/26 11:15:01;;;;;;;;;;;;;;;19.70;42.97;100104.33;101810;1309;62793;-83
2023/03/26 11:17:32;;;;;;;;;;;;;;;19.70;43.03;100099.89;101862;1312;73437;-83
2023/03/26 11:20:17;;;;;;;;;;;;;;;19.70;42.94;100095.46;101857;1311;76453;-83
2023/03/26 11:23:04;;;;;;;;;;;;;;;19.70;43.00;100095.46;101858;1311;62974;-83
2023/03/26 11:25:42;;;;;;;;;;;;;;;19.70;42.94;100093.14;101859;1309;62169;-83
2023/03/26 11:28:40;;;;;;;;;;;;;;;19.70;42.92;100081.70;101920;1308;72597;-83
2023/03/26 11:31:15;;;;;;;;;;;;;;;19.70;42.90;100076.89;101697;1308;75286;-83
2023/03/26 11:33:42;;;;;;;;;;;;;;;19.70;42.87;100072.07;102081;1313;62091;-83
2023/03/26 11:36:09;;;;;;;;;;;;;;;19.71;43.00;100074.70;101965;1308;62223;-83
2023/03/26 11:38:38;;;;;;;;;;;;;;;19.70;42.90;100061.71;101852;1315;72621;-83
2023/03/26 11:41:30;;;;;;;;;;;;;;;19.70;42.98;100055.95;101835;1314;75475;-83
2023/03/26 11:43:56;;;;;;;;;;;;;;;19.70;42.96;100053.10;101859;1309;62094;-83
2023/03/26 11:46:22;;;;;;;;;;;;;;;19.70;42.94;100052.39;101843;1310;62315;-83
2023/03/26 11:48:50;;;;;;;;;;;;;;;19.70;42.93;100045.46;101863;1314;62267;-83
2023/03/26 11:51:24;;;;;;;;;;;;;;;19.70;42.89;100043.67;101937;1308;62101;-82
2023/03/26 11:53:50;;;;;;;;;;;;;;;19.69;42.86;100043.34;101899;1308;62107;-82
2023/03/26 11:56:18;;;;;;;;;;;;;;;19.70;42.96;100040.66;101793;1314;62287;-83
2023/03/26 11:58:51;;;;;;;;;;;;;;;19.69;42.91;100036.25;101812;1313;73486;-83
2023/03/26 12:01:21;;;;;;;;;;;;;;;19.69;42.88;100035.00;101720;1308;75363;-84
2023/03/26 12:04:06;;;;;;;;;;;;;;;19.69;42.87;100034.25;101737;1308;62783;-83
2023/03/26 12:06:31;;;;;;;;;;;;;;;19.69;42.88;100026.96;101847;1308;62219;-83
2023/03/26 12:08:57;;;;;;;;;;;;;;;19.69;42.92;100021.60;101778;1314;62156;-84
2023/03/26 12:11:26;;;;;;;;;;;;;;;19.69;42.91;100013.78;101774;1311;62424;-84
2023/03/26 12:13:57;;;;;;;;;;;;;;;19.69;42.92;100017.52;101638;1311;62745;-82
2023/03/26 12:16:22;;;;;;;;;;;;;;;19.69;42.93;100010.37;101769;1311;62281;-83
2023/03/26 12:19:09;;;;;;;;;;;;;;;19.69;42.84;100009.09;101590;1311;63350;-83
2023/03/26 12:21:45;;;;;;;;;;;;;;;19.69;42.87;100011.77;101684;1312;76353;-84
2023/03/26 12:24:23;;;;;;;;;;;;;;;19.69;42.94;99998.04;101567;1311;62271;-84
2023/03/26 12:26:49;;;;;;;;;;;;;;;19.69;42.88;99997.30;101569;1311;62425;-83
2023/03/26 12:29:16;;;;;;;;;;;;;;;19.69;42.76;99995.35;101634;1311;72409;-84
2023/03/26 12:31:48;;;;;;;;;;;;;;;19.70;42.79;99987.80;101568;1311;62367;-83
2023/03/26 12:34:15;;;;;;;;;;;;;;;19.70;42.83;99987.08;101692;1311;62320;-83
2023/03/26 12:36:45;;;;;;;;;;;;;;;19.70;42.86;99988.71;101674;1311;62140;-82
2023/03/26 12:39:30;;;;;;;;;;;;;;;19.70;42.82;99987.39;101584;1316;73425;-84
2023/03/26 12:41:57;;;;;;;;;;;;;;;19.70;42.84;99989.02;101628;1311;75454;-84
2023/03/26 12:44:48;;;;;;;;;;;;;;;19.70;42.90;99980.98;101795;1309;62709;-83
2023/03/26 12:47:22;;;;;;;;;;;;;;;19.70;42.80;99979.21;101820;1308;62127;-83